Cabo Tamar — CBCT — position and weather

sailwx.info

Track history (hours):
 
Tides and Currents Weather Stations Pressure Air Temp Water Temp Dewpoint Dewpoint Depression Visibility Wind Speed Wind Dir Waves Ship Positions

Cabo Tamar

Last reported at 2017-Nov-15 17:49 UTC. Time now 2017-Nov-24 14:59 UTC.
Position S 33°03' W 071°49'.
Warning: this ship's position is 8 days out of date.

Length 239 m; draft 9 m.

Type: Tanker. MMSI: 725010010.

Date/timePositionNaut miles runAvg speedWind from/ knotsBaromVisibWave heightAir tempDewpointWater temp
2017-Nov-15 17:49S 33°03' W 071°49'310.9
2017-Nov-15 17:30S 32°60' W 071°47'510.9
2017-Nov-15 17:00S 32°55' W 071°44'510.8
2017-Nov-15 16:30S 32°50' W 071°41'510.8
2017-Nov-15 16:00S 32°46' W 071°38'4 8.3
2017-Nov-15 15:30S 32°44' W 071°33'2 4.5
2017-Nov-15 15:00S 32°45' W 071°31'0 0.0
2017-Nov-15 14:00S 32°45' W 071°31'0 0.0
2017-Nov-15 13:27S 32°45' W 071°31'0 0.0
2017-Nov-15 10:45S 32°45' W 071°31'0 0.0
2017-Nov-15 10:30S 32°45' W 071°31'0 0.0
2017-Nov-15 10:00S 32°45' W 071°31'0 0.0
2017-Nov-15 09:30S 32°45' W 071°31'0 0.0
2017-Nov-15 09:00S 32°45' W 071°31'0 0.0
2017-Nov-15 08:30S 32°45' W 071°31'0 0.0
2017-Nov-15 07:45S 32°45' W 071°31'0 0.0
2017-Nov-15 07:24S 32°45' W 071°31'0 0.0
2017-Nov-15 06:57S 32°45' W 071°31'0 0.0
2017-Nov-15 06:30S 32°45' W 071°31'0 0.0
2017-Nov-15 06:00S 32°45' W 071°31'0 0.0
2017-Nov-15 05:27S 32°45' W 071°31'0 0.0
2017-Nov-15 04:48S 32°45' W 071°31'0 0.0
2017-Nov-14 23:03S 32°45' W 071°31'0 0.0
2017-Nov-14 19:12S 32°45' W 071°31'0 0.0
2017-Nov-14 19:00S 32°45' W 071°31'0 0.0
2017-Nov-14 18:27S 32°45' W 071°31'0 0.0
2017-Nov-14 17:57S 32°45' W 071°31'0 0.0
2017-Nov-14 17:24S 32°45' W 071°31'0 0.0
2017-Nov-14 16:57S 32°45' W 071°31'0 0.0
2017-Nov-14 16:27S 32°45' W 071°31'0 0.0
2017-Nov-14 14:42S 32°45' W 071°31'0 0.0
2017-Nov-14 14:27S 32°45' W 071°31'0 0.1
2017-Nov-14 13:45S 32°45' W 071°31'0 0.0
2017-Nov-14 13:09S 32°45' W 071°31'0 0.0
2017-Nov-14 12:39S 32°45' W 071°31'0 0.1
2017-Nov-14 12:27S 32°45' W 071°31'0 0.0
2017-Nov-14 11:09S 32°45' W 071°31'0 0.0
2017-Nov-14 10:57S 32°45' W 071°31'0 0.0
2017-Nov-14 10:30S 32°45' W 071°31'0 0.1
2017-Nov-14 09:57S 32°45' W 071°31'0 0.0
2017-Nov-14 09:30S 32°45' W 071°31'0 0.7
2017-Nov-14 09:00S 32°45' W 071°31'1 0.0
2017-Nov-12 14:21S 32°46' W 071°30'0 0.0
2017-Nov-12 13:57S 32°46' W 071°30'0 0.2
2017-Nov-12 13:15S 32°46' W 071°30'0 0.9
2017-Nov-12 13:00S 32°46' W 071°30'1 2.6
2017-Nov-12 12:30S 32°45' W 071°31'2 4.3
2017-Nov-12 12:00S 32°45' W 071°34'4 8.1
2017-Nov-12 11:30S 32°48' W 071°38'510.1
2017-Nov-12 11:00S 32°52' W 071°42'510.6
2017-Nov-12 10:30S 32°56' W 071°45'510.5
2017-Nov-12 10:00S 33°01' W 071°48'  
Track history (hours):
 
Tides and Currents Weather Stations Pressure Air Temp Water Temp Dewpoint Dewpoint Depression Visibility Wind Speed Wind Dir Waves Ship Positions

Cabo Tamar

Last reported at 2017-Nov-15 17:49 UTC. Time now 2017-Nov-24 14:59 UTC.
Position S 33°03' W 071°49'.
Warning: this ship's position is 8 days out of date.

Length 239 m; draft 9 m.

Type: Tanker. MMSI: 725010010.

Date/timePositionNaut miles runAvg speedWind from/ knotsBaromVisibWave heightAir tempDewpointWater temp
2017-Nov-15 17:49S 33°03' W 071°49'310.9
2017-Nov-15 17:30S 32°60' W 071°47'510.9
2017-Nov-15 17:00S 32°55' W 071°44'510.8
2017-Nov-15 16:30S 32°50' W 071°41'510.8
2017-Nov-15 16:00S 32°46' W 071°38'4 8.3
2017-Nov-15 15:30S 32°44' W 071°33'2 4.5
2017-Nov-15 15:00S 32°45' W 071°31'0 0.0
2017-Nov-15 14:00S 32°45' W 071°31'0 0.0
2017-Nov-15 13:27S 32°45' W 071°31'0 0.0
2017-Nov-15 10:45S 32°45' W 071°31'0 0.0
2017-Nov-15 10:30S 32°45' W 071°31'0 0.0
2017-Nov-15 10:00S 32°45' W 071°31'0 0.0
2017-Nov-15 09:30S 32°45' W 071°31'0 0.0
2017-Nov-15 09:00S 32°45' W 071°31'0 0.0
2017-Nov-15 08:30S 32°45' W 071°31'0 0.0
2017-Nov-15 07:45S 32°45' W 071°31'0 0.0
2017-Nov-15 07:24S 32°45' W 071°31'0 0.0
2017-Nov-15 06:57S 32°45' W 071°31'0 0.0
2017-Nov-15 06:30S 32°45' W 071°31'0 0.0
2017-Nov-15 06:00S 32°45' W 071°31'0 0.0
2017-Nov-15 05:27S 32°45' W 071°31'0 0.0
2017-Nov-15 04:48S 32°45' W 071°31'0 0.0
2017-Nov-14 23:03S 32°45' W 071°31'0 0.0
2017-Nov-14 19:12S 32°45' W 071°31'0 0.0
2017-Nov-14 19:00S 32°45' W 071°31'0 0.0
2017-Nov-14 18:27S 32°45' W 071°31'0 0.0
2017-Nov-14 17:57S 32°45' W 071°31'0 0.0
2017-Nov-14 17:24S 32°45' W 071°31'0 0.0
2017-Nov-14 16:57S 32°45' W 071°31'0 0.0
2017-Nov-14 16:27S 32°45' W 071°31'0 0.0
2017-Nov-14 14:42S 32°45' W 071°31'0 0.0
2017-Nov-14 14:27S 32°45' W 071°31'0 0.1
2017-Nov-14 13:45S 32°45' W 071°31'0 0.0
2017-Nov-14 13:09S 32°45' W 071°31'0 0.0
2017-Nov-14 12:39S 32°45' W 071°31'0 0.1
2017-Nov-14 12:27S 32°45' W 071°31'0 0.0
2017-Nov-14 11:09S 32°45' W 071°31'0 0.0
2017-Nov-14 10:57S 32°45' W 071°31'0 0.0
2017-Nov-14 10:30S 32°45' W 071°31'0 0.1
2017-Nov-14 09:57S 32°45' W 071°31'0 0.0
2017-Nov-14 09:30S 32°45' W 071°31'0 0.7
2017-Nov-14 09:00S 32°45' W 071°31'1 0.0
2017-Nov-12 14:21S 32°46' W 071°30'0 0.0
2017-Nov-12 13:57S 32°46' W 071°30'0 0.2
2017-Nov-12 13:15S 32°46' W 071°30'0 0.9
2017-Nov-12 13:00S 32°46' W 071°30'1 2.6
2017-Nov-12 12:30S 32°45' W 071°31'2 4.3
2017-Nov-12 12:00S 32°45' W 071°34'4 8.1
2017-Nov-12 11:30S 32°48' W 071°38'510.1
2017-Nov-12 11:00S 32°52' W 071°42'510.6
2017-Nov-12 10:30S 32°56' W 071°45'510.5
2017-Nov-12 10:00S 33°01' W 071°48'  

Dump ship's entire track history